createdAt,value
2018-12-20T00:00:52.896Z,1.10
2018-12-20T00:03:40.801Z,1.27
2018-12-20T00:06:29.438Z,1.35
2018-12-20T00:10:17.399Z,1.20
2018-12-20T00:13:03.809Z,1.30
2018-12-20T00:15:51.470Z,1.30
2018-12-20T00:18:39.479Z,1.37
2018-12-20T00:21:27.323Z,1.20
2018-12-20T00:24:14.767Z,1.20
2018-12-20T00:26:49.144Z,1.20
2018-12-20T00:29:23.177Z,1.42
2018-12-20T00:31:57.152Z,1.20
2018-12-20T00:37:14.851Z,1.10
2018-12-20T00:39:48.578Z,0.90
2018-12-20T00:42:22.040Z,1.10
2018-12-20T00:44:55.627Z,1.10
2018-12-20T00:47:29.591Z,1.40
2018-12-20T00:50:37.651Z,1.30
2018-12-20T00:53:11.402Z,1.50
2018-12-20T00:55:45.263Z,1.20
2018-12-20T00:58:19.179Z,1.00
2018-12-20T01:00:52.811Z,1.10
2018-12-20T01:03:27.163Z,1.20
2018-12-20T01:06:01.102Z,1.22
2018-12-20T01:08:35.249Z,1.27
2018-12-20T01:11:09.010Z,1.30
2018-12-20T01:13:42.574Z,1.23
2018-12-20T01:16:16.492Z,1.37
2018-12-20T01:18:50.278Z,1.10
2018-12-20T01:21:24.202Z,1.20
2018-12-20T01:23:57.840Z,1.30
2018-12-20T01:26:31.440Z,1.20
2018-12-20T01:29:05.417Z,1.30
2018-12-20T01:31:39.281Z,1.25
2018-12-20T01:34:14.002Z,1.20
2018-12-20T01:36:48.358Z,1.17
2018-12-20T01:39:22.013Z,1.10
2018-12-20T01:41:55.508Z,1.30
2018-12-20T01:44:29.034Z,0.93
2018-12-20T01:47:03.197Z,1.30
2018-12-20T01:49:36.835Z,1.30
2018-12-20T01:52:10.546Z,1.20
2018-12-20T01:54:44.712Z,1.10
2018-12-20T01:57:18.574Z,1.20
2018-12-20T01:59:51.803Z,1.07
2018-12-20T02:02:25.451Z,1.20
2018-12-20T02:05:17.767Z,1.20
2018-12-20T02:07:51.455Z,1.20
2018-12-20T02:10:25.135Z,1.22
2018-12-20T02:12:59.710Z,1.40
2018-12-20T02:15:33.383Z,1.30
2018-12-20T02:18:07.308Z,1.60
2018-12-20T02:20:41.256Z,1.15
2018-12-20T02:23:15.288Z,1.10
2018-12-20T02:25:48.775Z,4.30
2018-12-20T02:28:50.313Z,1.30
2018-12-20T02:31:24.782Z,1.40
2018-12-20T02:33:59.257Z,1.60
2018-12-20T02:36:33.772Z,1.47
2018-12-20T02:39:10.242Z,1.37
2018-12-20T02:41:44.399Z,1.70
2018-12-20T02:44:18.342Z,2.05
2018-12-20T02:46:52.330Z,1.50
2018-12-20T02:49:26.785Z,1.47
2018-12-20T02:52:00.589Z,1.60
2018-12-20T02:54:34.978Z,1.47
2018-12-20T02:57:09.246Z,1.37
2018-12-20T02:59:43.572Z,1.30
2018-12-20T03:02:17.463Z,1.20
2018-12-20T03:04:51.566Z,1.30
2018-12-20T03:07:25.125Z,1.30
2018-12-20T03:09:58.996Z,1.60
2018-12-20T03:12:33.260Z,1.40
2018-12-20T03:15:07.311Z,1.22
2018-12-20T03:17:41.799Z,1.32
2018-12-20T03:20:15.618Z,1.37
2018-12-20T03:22:49.115Z,1.27
2018-12-20T03:25:22.759Z,1.40
2018-12-20T03:27:56.308Z,1.30
2018-12-20T03:30:30.214Z,1.30
2018-12-20T03:33:04.305Z,1.27
2018-12-20T03:35:38.835Z,1.50
2018-12-20T03:38:12.629Z,1.30
2018-12-20T03:40:46.541Z,1.40
2018-12-20T03:43:21.497Z,1.40
2018-12-20T03:45:55.324Z,1.50
2018-12-20T03:48:29.062Z,1.60
2018-12-20T03:51:03.265Z,1.60
2018-12-20T03:53:37.756Z,1.40
2018-12-20T03:56:12.009Z,1.30
2018-12-20T03:58:46.074Z,1.40
2018-12-20T04:01:20.083Z,1.30
2018-12-20T04:03:54.875Z,1.50
2018-12-20T04:06:28.922Z,1.50
2018-12-20T04:09:03.828Z,1.40
2018-12-20T04:11:37.966Z,1.30
2018-12-20T04:14:12.518Z,1.65
2018-12-20T04:16:46.630Z,1.60
2018-12-20T04:19:20.578Z,1.70
2018-12-20T04:21:54.607Z,1.70
2018-12-20T04:24:28.867Z,1.70
2018-12-20T04:27:02.476Z,1.60
2018-12-20T04:29:36.442Z,1.60
2018-12-20T04:32:10.880Z,1.60
2018-12-20T04:34:45.283Z,1.70
2018-12-20T04:37:19.469Z,1.70
2018-12-20T04:39:53.627Z,1.65
2018-12-20T04:42:27.788Z,1.80
2018-12-20T04:45:01.680Z,2.40
2018-12-20T04:47:35.597Z,1.90
2018-12-20T04:50:10.534Z,2.42
2018-12-20T04:52:44.792Z,2.20
2018-12-20T04:55:18.325Z,1.73
2018-12-20T04:57:52.515Z,1.70
2018-12-20T05:00:26.625Z,1.90
2018-12-20T05:03:00.807Z,2.30
2018-12-20T05:05:34.922Z,1.98
2018-12-20T05:08:08.627Z,2.40
2018-12-20T05:10:42.532Z,2.30
2018-12-20T05:13:16.011Z,2.40
2018-12-20T05:15:55.983Z,2.30
2018-12-20T05:18:26.095Z,2.40
2018-12-20T05:21:00.619Z,2.60
2018-12-20T05:23:34.210Z,2.70
2018-12-20T05:26:07.747Z,2.50
2018-12-20T05:28:41.864Z,2.97
2018-12-20T05:31:15.639Z,2.93
2018-12-20T05:33:49.341Z,3.10
2018-12-20T05:36:24.343Z,3.08
2018-12-20T05:38:58.613Z,3.47
2018-12-20T05:41:32.497Z,3.35
2018-12-20T05:44:06.245Z,3.57
2018-12-20T05:46:40.867Z,3.67
2018-12-20T05:49:15.140Z,3.63
2018-12-20T05:54:21.267Z,3.70
2018-12-20T05:56:55.438Z,3.77
2018-12-20T05:59:29.305Z,3.98
2018-12-20T06:02:04.363Z,3.90
2018-12-20T06:04:38.681Z,4.20
2018-12-20T06:07:12.974Z,4.43
2018-12-20T06:09:47.449Z,4.20
2018-12-20T06:12:21.384Z,4.37
2018-12-20T06:14:55.628Z,4.77
2018-12-20T06:17:29.909Z,4.60
2018-12-20T06:20:04.233Z,4.70
2018-12-20T06:22:38.849Z,4.70
2018-12-20T06:25:12.445Z,5.03
2018-12-20T06:27:46.119Z,5.08
2018-12-20T06:30:19.725Z,4.80
2018-12-20T06:32:53.198Z,4.92
2018-12-20T06:35:27.146Z,5.10
2018-12-20T06:38:00.692Z,5.00
2018-12-20T06:40:34.662Z,4.75
2018-12-20T06:43:08.649Z,4.65
2018-12-20T06:45:42.262Z,4.50
2018-12-20T06:48:15.863Z,4.90
2018-12-20T06:50:49.351Z,4.65
2018-12-20T06:53:23.247Z,4.60
2018-12-20T06:55:56.865Z,4.40
2018-12-20T06:58:30.210Z,4.60
2018-12-20T07:01:03.447Z,4.78
2018-12-20T07:03:37.562Z,4.70
2018-12-20T07:06:11.745Z,4.45
2018-12-20T07:08:45.550Z,5.17
2018-12-20T07:11:19.655Z,4.50
2018-12-20T07:13:53.113Z,5.22
2018-12-20T07:16:29.425Z,5.10
2018-12-20T07:19:02.878Z,4.90
2018-12-20T07:21:36.557Z,4.75
2018-12-20T07:25:55.034Z,4.67
2018-12-20T07:28:28.624Z,5.10
2018-12-20T07:31:02.555Z,4.70
2018-12-20T07:33:37.134Z,5.12
2018-12-20T07:36:10.561Z,5.23
2018-12-20T07:38:44.554Z,6.30
2018-12-20T07:41:18.689Z,5.30
2018-12-20T07:43:52.196Z,6.60
2018-12-20T07:46:25.813Z,6.58
2018-12-20T07:48:59.145Z,6.20
2018-12-20T07:51:32.837Z,6.05
2018-12-20T07:54:06.698Z,5.67
2018-12-20T07:56:39.891Z,6.00
2018-12-20T07:59:13.306Z,5.40
2018-12-20T08:01:47.050Z,5.10
2018-12-20T08:04:20.575Z,5.95
2018-12-20T08:06:54.263Z,5.60
2018-12-20T08:09:28.197Z,5.47
2018-12-20T08:12:01.736Z,4.80
2018-12-20T08:14:35.175Z,5.03
2018-12-20T08:17:09.094Z,5.40
2018-12-20T08:22:14.583Z,4.58
2018-12-20T08:24:48.362Z,5.10
2018-12-20T08:27:22.151Z,4.50
2018-12-20T08:29:55.731Z,4.60
2018-12-20T08:32:30.289Z,4.65
2018-12-20T08:35:03.770Z,4.95
2018-12-20T08:37:37.217Z,4.58
2018-12-20T08:40:12.284Z,4.70
2018-12-20T08:42:45.753Z,4.47
2018-12-20T08:45:19.557Z,5.10
2018-12-20T08:47:53.418Z,5.22
2018-12-20T08:50:27.232Z,5.13
2018-12-20T08:53:00.774Z,4.92
2018-12-20T08:55:34.390Z,5.37
2018-12-20T08:58:08.414Z,5.17
2018-12-20T09:00:41.936Z,4.60
2018-12-20T09:03:15.697Z,4.85
2018-12-20T09:05:50.135Z,4.70
2018-12-20T09:08:25.393Z,4.70
2018-12-20T09:10:59.231Z,4.30
2018-12-20T09:13:32.701Z,4.10
2018-12-20T09:16:06.438Z,4.03
2018-12-20T09:18:40.598Z,3.93
2018-12-20T09:21:14.434Z,3.70
2018-12-20T09:23:48.260Z,4.20
2018-12-20T09:26:22.707Z,4.17
2018-12-20T09:28:56.441Z,3.50
2018-12-20T09:31:30.456Z,3.90
2018-12-20T09:34:04.471Z,3.80
2018-12-20T09:36:38.599Z,4.17
2018-12-20T09:39:13.181Z,4.10
2018-12-20T09:41:47.080Z,3.60
2018-12-20T09:44:20.713Z,4.03
2018-12-20T09:46:58.080Z,3.30
2018-12-20T09:49:32.099Z,3.20
2018-12-20T09:52:05.766Z,4.05
2018-12-20T09:54:39.442Z,3.45
2018-12-20T09:57:13.198Z,3.10
2018-12-20T09:59:47.253Z,3.50
2018-12-20T10:02:21.276Z,3.37
2018-12-20T10:04:55.191Z,3.47
2018-12-20T10:07:29.379Z,3.77
2018-12-20T10:10:03.269Z,3.60
2018-12-20T10:12:37.584Z,3.37
2018-12-20T10:15:11.805Z,3.80
2018-12-20T10:17:45.423Z,3.53
2018-12-20T10:20:21.139Z,3.60
2018-12-20T10:22:54.808Z,3.90
2018-12-20T10:25:28.266Z,3.70
2018-12-20T10:28:02.419Z,3.70
2018-12-20T10:30:36.441Z,3.87
2018-12-20T10:33:45.722Z,4.40
2018-12-20T10:36:20.103Z,4.30
2018-12-20T10:38:54.119Z,4.45
2018-12-20T10:41:28.268Z,4.10
2018-12-20T10:44:02.135Z,4.20
2018-12-20T10:46:35.729Z,3.80
2018-12-20T10:49:09.937Z,4.10
2018-12-20T10:51:44.106Z,3.90
2018-12-20T10:54:17.832Z,3.90
2018-12-20T10:56:51.778Z,3.70
2018-12-20T10:59:25.790Z,4.00
2018-12-20T11:02:03.947Z,3.90
2018-12-20T11:08:18.365Z,3.80
2018-12-20T11:10:55.066Z,3.53
2018-12-20T11:13:29.266Z,3.77
2018-12-20T11:16:02.858Z,3.30
2018-12-20T11:18:36.342Z,3.07
2018-12-20T11:21:09.465Z,3.10
2018-12-20T11:23:43.243Z,3.20
2018-12-20T11:26:16.458Z,3.10
2018-12-20T11:28:50.174Z,3.30
2018-12-20T11:31:23.740Z,2.85
2018-12-20T11:33:57.227Z,3.00
2018-12-20T11:36:30.781Z,2.60
2018-12-20T11:39:08.580Z,2.77
2018-12-20T11:41:41.245Z,2.90
2018-12-20T11:44:14.834Z,3.08
2018-12-20T11:46:49.146Z,2.70
2018-12-20T11:49:23.110Z,3.00
2018-12-20T11:51:56.494Z,2.93
2018-12-20T11:54:30.285Z,2.83
2018-12-20T11:57:03.511Z,2.83
2018-12-20T11:59:37.230Z,3.07
2018-12-20T12:02:10.811Z,3.40
2018-12-20T12:04:44.246Z,2.72
2018-12-20T12:07:17.655Z,3.00
2018-12-20T12:09:51.226Z,2.87
2018-12-20T12:12:24.555Z,2.70
2018-12-20T12:14:58.227Z,2.70
2018-12-20T12:17:31.334Z,2.50
2018-12-20T12:20:04.814Z,2.50
2018-12-20T12:22:38.197Z,2.70
2018-12-20T12:25:12.358Z,2.70
2018-12-20T12:27:45.878Z,2.60
2018-12-20T12:30:19.291Z,2.60
2018-12-20T12:32:52.674Z,2.30
2018-12-20T12:35:26.145Z,2.63
2018-12-20T12:37:59.682Z,3.00
2018-12-20T12:40:33.254Z,2.70
2018-12-20T12:43:06.492Z,2.37
2018-12-20T12:45:39.889Z,2.53
2018-12-20T12:48:13.255Z,3.20
2018-12-20T12:50:46.533Z,3.10
2018-12-20T12:53:19.866Z,2.70
2018-12-20T12:55:53.305Z,2.80
2018-12-20T12:58:26.563Z,2.50
2018-12-20T13:00:59.769Z,2.70
2018-12-20T13:03:32.857Z,2.63
2018-12-20T13:06:06.366Z,2.75
2018-12-20T13:08:39.493Z,2.80
2018-12-20T13:11:13.166Z,2.50
2018-12-20T13:13:46.730Z,2.35
2018-12-20T13:16:20.375Z,2.40
2018-12-20T13:18:53.522Z,2.20
2018-12-20T13:21:27.354Z,2.60
2018-12-20T13:24:00.474Z,2.70
2018-12-20T13:26:33.970Z,2.30
2018-12-20T13:29:07.470Z,2.55
2018-12-20T13:31:40.839Z,2.60
2018-12-20T13:34:14.199Z,2.43
2018-12-20T13:36:47.775Z,2.37
2018-12-20T13:39:21.266Z,2.30
2018-12-20T13:41:55.269Z,2.30
2018-12-20T13:44:28.490Z,2.00
2018-12-20T13:47:01.784Z,2.40
2018-12-20T13:49:35.159Z,2.00
2018-12-20T13:52:08.509Z,2.40
2018-12-20T13:54:41.970Z,2.30
2018-12-20T13:57:15.263Z,2.10
2018-12-20T13:59:48.413Z,2.10
2018-12-20T14:02:21.679Z,2.00
2018-12-20T14:04:55.194Z,2.10
2018-12-20T14:07:28.587Z,2.00
2018-12-20T14:10:01.905Z,2.00
2018-12-20T14:12:35.262Z,2.00
2018-12-20T14:15:09.918Z,1.80
2018-12-20T14:17:43.356Z,1.80
2018-12-20T14:20:16.562Z,1.70
2018-12-20T14:22:50.215Z,1.73
2018-12-20T14:25:23.422Z,1.60
2018-12-20T14:27:56.857Z,1.80
2018-12-20T14:32:59.361Z,1.80
2018-12-20T14:35:33.014Z,1.70
2018-12-20T14:38:06.646Z,1.70
2018-12-20T14:40:40.715Z,1.55
2018-12-20T14:43:14.803Z,1.57
2018-12-20T14:45:48.594Z,1.63
2018-12-20T14:48:26.697Z,1.50
2018-12-20T14:51:01.092Z,1.60
2018-12-20T14:53:34.963Z,1.63
2018-12-20T14:56:08.566Z,1.70
2018-12-20T14:58:42.435Z,1.50
2018-12-20T15:01:16.586Z,1.70
2018-12-20T15:03:50.802Z,1.40
2018-12-20T15:06:24.434Z,1.60
2018-12-20T15:08:57.935Z,1.57
2018-12-20T15:11:31.861Z,1.50
2018-12-20T15:14:06.018Z,1.60
2018-12-20T15:16:39.812Z,1.30
2018-12-20T15:19:13.876Z,1.43
2018-12-20T15:21:48.023Z,1.30
2018-12-20T15:24:21.940Z,1.55
2018-12-20T15:26:55.813Z,1.47
2018-12-20T15:29:29.707Z,1.40
2018-12-20T15:32:03.375Z,1.43
2018-12-20T15:34:37.430Z,1.47
2018-12-20T15:37:11.286Z,1.50
2018-12-20T15:39:45.339Z,1.10
2018-12-20T15:42:19.518Z,1.47
2018-12-20T15:44:53.350Z,1.53
2018-12-20T15:47:27.334Z,1.40
2018-12-20T15:50:01.016Z,1.60
2018-12-20T15:52:34.983Z,1.50
2018-12-20T15:55:09.574Z,1.20
2018-12-20T15:57:43.393Z,1.53
2018-12-20T16:00:17.345Z,1.60
2018-12-20T16:02:51.381Z,2.20
2018-12-20T16:08:01.060Z,2.30
2018-12-20T16:10:34.888Z,2.27
2018-12-20T16:13:08.734Z,2.20
2018-12-20T16:15:42.412Z,2.17
2018-12-20T16:18:16.322Z,2.43
2018-12-20T16:20:50.291Z,2.80
2018-12-20T16:23:24.549Z,6.42
2018-12-20T16:25:58.313Z,7.23
2018-12-20T16:28:32.543Z,7.73
2018-12-20T16:31:06.634Z,8.68
2018-12-20T16:33:40.754Z,7.85
2018-12-20T16:36:14.600Z,6.58
2018-12-20T16:38:48.640Z,5.53
2018-12-20T16:41:22.470Z,5.20
2018-12-20T16:45:24.375Z,4.80
2018-12-20T16:47:58.732Z,5.55
2018-12-20T16:50:32.730Z,5.33
2018-12-20T16:53:06.534Z,5.40
2018-12-20T16:55:40.335Z,4.55
2018-12-20T16:58:14.342Z,4.60
2018-12-20T17:01:26.742Z,3.83
2018-12-20T17:08:24.878Z,3.20
2018-12-20T17:10:58.599Z,2.97
2018-12-20T17:13:32.737Z,2.90
2018-12-20T17:16:06.849Z,2.60
2018-12-20T17:18:40.811Z,3.00
2018-12-20T17:21:14.743Z,2.45
2018-12-20T17:23:49.176Z,2.40
2018-12-20T17:26:23.346Z,2.73
2018-12-20T17:28:56.852Z,2.40
2018-12-20T17:31:30.901Z,2.58
2018-12-20T17:34:04.582Z,2.80
2018-12-20T17:36:38.581Z,2.70
2018-12-20T17:39:12.854Z,3.10
2018-12-20T17:41:47.221Z,2.50
2018-12-20T17:44:21.362Z,3.00
2018-12-20T17:46:55.360Z,2.90
2018-12-20T17:49:30.611Z,2.60
2018-12-20T17:52:05.335Z,3.10
2018-12-20T17:54:39.408Z,2.70
2018-12-20T17:57:13.436Z,2.72
2018-12-20T18:04:23.920Z,2.60
2018-12-20T18:06:57.860Z,2.98
2018-12-20T18:09:31.777Z,2.77
2018-12-20T18:12:05.356Z,3.03
2018-12-20T18:14:39.336Z,3.10
2018-12-20T18:17:12.941Z,3.07
2018-12-20T18:19:46.766Z,3.10
2018-12-20T18:22:20.590Z,3.10
2018-12-20T18:24:54.700Z,3.00
2018-12-20T18:27:28.686Z,3.00
2018-12-20T18:30:02.371Z,3.40
2018-12-20T18:33:10.436Z,3.72
2018-12-20T18:35:44.599Z,3.83
2018-12-20T18:38:18.494Z,3.90
2018-12-20T18:40:52.084Z,4.47
2018-12-20T18:43:25.873Z,5.43
2018-12-20T18:46:00.083Z,5.92
2018-12-20T18:48:34.397Z,5.67
2018-12-20T18:51:08.410Z,5.00
2018-12-20T18:53:41.995Z,5.00
2018-12-20T18:56:16.425Z,5.03
2018-12-20T18:58:50.322Z,4.85
2018-12-20T19:01:24.086Z,4.77
2018-12-20T19:06:02.504Z,5.03
2018-12-20T19:08:36.519Z,4.53
2018-12-20T19:11:10.079Z,4.80
2018-12-20T19:13:43.774Z,4.92
2018-12-20T19:16:17.399Z,4.27
2018-12-20T19:18:51.329Z,4.15
2018-12-20T19:21:25.204Z,4.30
2018-12-20T19:23:59.263Z,5.00
2018-12-20T19:26:32.879Z,4.00
2018-12-20T19:29:07.364Z,5.00
2018-12-20T19:31:40.825Z,4.00
2018-12-20T19:36:56.351Z,3.95
2018-12-20T19:44:21.796Z,4.10
2018-12-20T19:46:55.510Z,3.90
2018-12-20T19:51:55.990Z,3.60
2018-12-20T19:54:29.765Z,3.67
2018-12-20T19:57:03.015Z,4.03
2018-12-20T19:59:38.795Z,3.33
2018-12-20T20:02:12.915Z,3.50
2018-12-20T20:04:46.398Z,3.50
2018-12-20T20:07:51.590Z,3.52
2018-12-20T20:10:25.303Z,3.45
2018-12-20T20:15:36.113Z,3.30
2018-12-20T20:18:09.901Z,3.30
2018-12-20T20:20:43.806Z,3.33
2018-12-20T20:23:18.609Z,3.20
2018-12-20T20:25:52.370Z,3.50
2018-12-20T20:28:25.624Z,2.80
2018-12-20T20:30:59.410Z,2.90
2018-12-20T20:33:33.530Z,3.08
2018-12-20T20:36:07.450Z,3.22
2018-12-20T20:38:41.458Z,3.40
2018-12-20T20:41:15.225Z,3.30
2018-12-20T20:43:48.985Z,3.10
2018-12-20T20:46:23.126Z,3.20
2018-12-20T20:48:56.907Z,2.93
2018-12-20T20:51:31.216Z,3.00
2018-12-20T20:54:05.321Z,2.70
2018-12-20T20:56:39.951Z,2.80
2018-12-20T20:59:13.810Z,3.20
2018-12-20T21:01:47.570Z,2.77
2018-12-20T21:09:53.513Z,3.00
2018-12-20T21:12:27.459Z,3.00
2018-12-20T21:15:01.527Z,3.50
2018-12-20T21:17:35.556Z,3.00
2018-12-20T21:20:10.821Z,2.65
2018-12-20T21:22:45.419Z,2.67
2018-12-20T21:25:19.486Z,2.92
2018-12-20T21:27:53.379Z,2.83
2018-12-20T21:30:27.405Z,2.60
2018-12-20T21:33:01.487Z,2.83
2018-12-20T21:35:35.583Z,2.50
2018-12-20T21:40:19.549Z,2.40
2018-12-20T21:42:53.654Z,2.60
2018-12-20T21:48:05.349Z,2.50
2018-12-20T21:50:39.502Z,2.40
2018-12-20T21:53:13.636Z,2.70
2018-12-20T21:55:47.782Z,2.60
2018-12-20T21:58:21.823Z,2.73
2018-12-20T22:00:56.208Z,2.70
2018-12-20T22:03:30.033Z,2.90
2018-12-20T22:06:04.401Z,2.93
2018-12-20T22:08:38.010Z,2.97
2018-12-20T22:11:11.810Z,3.20
2018-12-20T22:13:46.007Z,3.40
2018-12-20T22:16:19.942Z,3.40
2018-12-20T22:18:53.472Z,3.40
2018-12-20T22:21:28.717Z,3.20
2018-12-20T22:24:02.438Z,3.30
2018-12-20T22:26:36.552Z,3.33
2018-12-20T22:29:10.669Z,3.17
2018-12-20T22:31:44.834Z,2.93
2018-12-20T22:36:16.436Z,3.33
2018-12-20T22:38:50.431Z,3.00
2018-12-20T22:41:24.478Z,3.10
2018-12-20T22:43:58.523Z,2.97
2018-12-20T22:46:32.464Z,2.70
2018-12-20T22:49:06.830Z,2.72
2018-12-20T22:54:30.978Z,2.70
2018-12-20T23:01:42.972Z,2.70
2018-12-20T23:04:16.207Z,2.70
2018-12-20T23:06:49.925Z,2.50
2018-12-20T23:09:23.627Z,2.47
2018-12-20T23:11:57.531Z,2.35
2018-12-20T23:17:03.418Z,2.30
2018-12-20T23:19:37.454Z,2.30
2018-12-20T23:22:11.518Z,2.30
2018-12-20T23:24:45.597Z,2.37
2018-12-20T23:27:54.966Z,2.58
2018-12-20T23:30:28.585Z,2.03
2018-12-20T23:33:02.304Z,2.20
2018-12-20T23:35:36.534Z,2.30
2018-12-20T23:38:10.147Z,2.05
2018-12-20T23:40:44.155Z,2.00
2018-12-20T23:43:18.018Z,1.98
2018-12-20T23:45:52.535Z,2.00
2018-12-20T23:51:03.529Z,2.00
2018-12-20T23:53:37.080Z,2.00
2018-12-20T23:56:10.552Z,2.20
2018-12-20T23:58:43.981Z,2.05
